sensor_id;sensor_type;location;lat;lon;timestamp;pressure;altitude;pressure_sealevel;temperature;humidity
35878;BME280;21982;49.804;24.072;2022-08-19T00:00:15;97028.94;;;23.25;65.79
35878;BME280;21982;49.804;24.072;2022-08-19T00:02:42;97022.19;;;23.28;66.18
35878;BME280;21982;49.804;24.072;2022-08-19T00:05:08;97007.38;;;23.20;65.80
35878;BME280;21982;49.804;24.072;2022-08-19T00:07:34;97005.47;;;23.21;66.13
35878;BME280;21982;49.804;24.072;2022-08-19T00:10:00;97030.53;;;23.36;65.78
35878;BME280;21982;49.804;24.072;2022-08-19T00:12:26;97030.53;;;23.36;66.11
35878;BME280;21982;49.804;24.072;2022-08-19T00:14:52;97033.75;;;23.38;65.89
35878;BME280;21982;49.804;24.072;2022-08-19T00:17:20;97015.41;;;23.30;65.78
35878;BME280;21982;49.804;24.072;2022-08-19T00:19:45;97033.22;;;23.36;65.97
35878;BME280;21982;49.804;24.072;2022-08-19T00:22:11;96991.44;;;23.14;66.12
35878;BME280;21982;49.804;24.072;2022-08-19T00:24:36;97020.28;;;23.33;65.91
35878;BME280;21982;49.804;24.072;2022-08-19T00:27:04;97028.91;;;23.30;66.12
35878;BME280;21982;49.804;24.072;2022-08-19T00:29:30;97036.47;;;23.33;66.30
35878;BME280;21982;49.804;24.072;2022-08-19T00:31:56;97032.44;;;23.31;66.36
35878;BME280;21982;49.804;24.072;2022-08-19T00:34:25;97016.78;;;23.23;66.22
35878;BME280;21982;49.804;24.072;2022-08-19T00:36:53;97043.22;;;23.36;66.40
35878;BME280;21982;49.804;24.072;2022-08-19T00:39:19;97034.59;;;23.29;66.50
35878;BME280;21982;49.804;24.072;2022-08-19T00:41:46;97034.88;;;23.27;66.44
35878;BME280;21982;49.804;24.072;2022-08-19T00:44:22;97048.91;;;23.34;66.44
35878;BME280;21982;49.804;24.072;2022-08-19T00:46:49;97054.06;;;23.31;66.57
35878;BME280;21982;49.804;24.072;2022-08-19T00:51:54;97061.34;;;23.25;66.67
35878;BME280;21982;49.804;24.072;2022-08-19T00:54:21;97060.88;;;23.18;66.92
35878;BME280;21982;49.804;24.072;2022-08-19T00:56:47;97062.75;;;23.13;67.28
35878;BME280;21982;49.804;24.072;2022-08-19T00:59:15;97023.41;;;22.86;67.60
35878;BME280;21982;49.804;24.072;2022-08-19T01:01:43;97060.88;;;23.08;67.46
35878;BME280;21982;49.804;24.072;2022-08-19T01:04:09;97049.00;;;22.99;67.71
35878;BME280;21982;49.804;24.072;2022-08-19T01:06:37;97050.09;;;22.98;67.97
35878;BME280;21982;49.804;24.072;2022-08-19T01:09:03;97033.09;;;22.87;68.00
35878;BME280;21982;49.804;24.072;2022-08-19T01:11:30;96960.81;;;22.38;68.04
35878;BME280;21982;49.804;24.072;2022-08-19T01:13:57;97051.19;;;22.92;68.10
35878;BME280;21982;49.804;24.072;2022-08-19T01:16:26;97053.34;;;22.90;68.34
35878;BME280;21982;49.804;24.072;2022-08-19T01:18:56;96937.88;;;21.95;68.35
35878;BME280;21982;49.804;24.072;2022-08-19T01:21:27;97067.13;;;22.83;68.54
35878;BME280;21982;49.804;24.072;2022-08-19T01:23:56;97073.06;;;22.75;68.56
35878;BME280;21982;49.804;24.072;2022-08-19T01:26:26;97069.28;;;22.71;69.04
35878;BME280;21982;49.804;24.072;2022-08-19T01:28:55;97059.28;;;22.61;69.14
35878;BME280;21982;49.804;24.072;2022-08-19T01:31:26;97069.53;;;22.69;69.24
35878;BME280;21982;49.804;24.072;2022-08-19T01:33:54;97039.34;;;22.47;69.41
35878;BME280;21982;49.804;24.072;2022-08-19T01:36:33;97078.72;;;22.68;69.35
35878;BME280;21982;49.804;24.072;2022-08-19T01:39:07;97067.91;;;22.68;69.51
35878;BME280;21982;49.804;24.072;2022-08-19T01:41:34;97081.41;;;22.68;69.58
35878;BME280;21982;49.804;24.072;2022-08-19T01:44:04;97003.97;;;22.33;69.25
35878;BME280;21982;49.804;24.072;2022-08-19T01:46:34;97074.41;;;22.72;69.44
35878;BME280;21982;49.804;24.072;2022-08-19T01:49:01;97051.19;;;22.61;69.32
35878;BME280;21982;49.804;24.072;2022-08-19T01:51:27;97060.09;;;22.67;69.55
35878;BME280;21982;49.804;24.072;2022-08-19T01:53:52;97062.78;;;22.62;69.57
35878;BME280;21982;49.804;24.072;2022-08-19T01:56:19;97068.72;;;22.69;69.78
35878;BME280;21982;49.804;24.072;2022-08-19T01:58:49;97066.56;;;22.71;69.89
35878;BME280;21982;49.804;24.072;2022-08-19T02:01:16;97007.22;;;22.35;69.86
35878;BME280;21982;49.804;24.072;2022-08-19T02:03:42;97039.31;;;22.57;70.09
35878;BME280;21982;49.804;24.072;2022-08-19T02:06:11;97062.78;;;22.77;70.18
35878;BME280;21982;49.804;24.072;2022-08-19T02:08:39;97045.78;;;22.71;70.05
35878;BME280;21982;49.804;24.072;2022-08-19T02:11:07;97054.16;;;22.75;69.81
35878;BME280;21982;49.804;24.072;2022-08-19T02:13:34;97066.88;;;22.85;69.94
35878;BME280;21982;49.804;24.072;2022-08-19T02:16:00;97013.44;;;22.51;69.85
35878;BME280;21982;49.804;24.072;2022-08-19T02:18:25;97078.22;;;22.82;70.11
35878;BME280;21982;49.804;24.072;2022-08-19T02:20:52;97077.66;;;22.80;70.20
35878;BME280;21982;49.804;24.072;2022-08-19T02:23:17;97081.41;;;22.68;70.29
35878;BME280;21982;49.804;24.072;2022-08-19T02:25:45;97068.75;;;22.49;70.52
35878;BME280;21982;49.804;24.072;2022-08-19T02:28:11;97077.66;;;22.44;71.01
35878;BME280;21982;49.804;24.072;2022-08-19T02:30:37;97067.38;;;22.31;71.16
35878;BME280;21982;49.804;24.072;2022-08-19T02:33:04;97082.75;;;22.25;71.30
35878;BME280;21982;49.804;24.072;2022-08-19T02:35:30;97100.28;;;22.28;71.60
35878;BME280;21982;49.804;24.072;2022-08-19T02:37:55;97086.78;;;22.08;71.84
35878;BME280;21982;49.804;24.072;2022-08-19T02:40:39;97106.19;;;22.04;72.08
35878;BME280;21982;49.804;24.072;2022-08-19T02:43:07;97101.81;;;21.98;72.26
35878;BME280;21982;49.804;24.072;2022-08-19T02:45:38;97070.97;;;21.64;72.46
35878;BME280;21982;49.804;24.072;2022-08-19T02:48:05;97107.16;;;21.78;73.03
35878;BME280;21982;49.804;24.072;2022-08-19T02:50:31;97103.34;;;21.69;73.59
35878;BME280;21982;49.804;24.072;2022-08-19T02:52:57;97093.31;;;21.59;73.76
35878;BME280;21982;49.804;24.072;2022-08-19T02:55:23;97082.75;;;21.43;74.03
35878;BME280;21982;49.804;24.072;2022-08-19T02:57:48;97089.25;;;21.47;74.22
35878;BME280;21982;49.804;24.072;2022-08-19T03:00:16;97060.00;;;21.23;74.75
35878;BME280;21982;49.804;24.072;2022-08-19T03:02:42;97074.31;;;21.29;74.78
35878;BME280;21982;49.804;24.072;2022-08-19T03:05:09;97085.66;;;21.31;75.15
35878;BME280;21982;49.804;24.072;2022-08-19T03:07:35;97076.63;;;21.10;75.07
35878;BME280;21982;49.804;24.072;2022-08-19T03:10:01;97102.56;;;21.21;75.67
35878;BME280;21982;49.804;24.072;2022-08-19T03:12:26;97102.47;;;21.11;76.11
35878;BME280;21982;49.804;24.072;2022-08-19T03:14:52;97101.38;;;21.07;76.36
35878;BME280;21982;49.804;24.072;2022-08-19T03:17:18;97087.59;;;20.98;76.63
35878;BME280;21982;49.804;24.072;2022-08-19T03:19:44;97103.72;;;20.98;77.04
35878;BME280;21982;49.804;24.072;2022-08-19T03:22:10;97101.25;;;20.92;77.37
35878;BME280;21982;49.804;24.072;2022-08-19T03:24:36;97103.41;;;20.90;77.67
35878;BME280;21982;49.804;24.072;2022-08-19T03:27:02;97094.50;;;20.89;77.72
35878;BME280;21982;49.804;24.072;2022-08-19T03:29:31;97098.56;;;20.92;77.98
35878;BME280;21982;49.804;24.072;2022-08-19T03:32:02;97097.47;;;20.88;77.89
35878;BME280;21982;49.804;24.072;2022-08-19T03:34:30;97098.06;;;20.95;77.99
35878;BME280;21982;49.804;24.072;2022-08-19T03:36:58;97058.31;;;20.70;78.10
35878;BME280;21982;49.804;24.072;2022-08-19T03:39:25;97097.53;;;20.98;78.14
35878;BME280;21982;49.804;24.072;2022-08-19T03:41:55;97068.91;;;20.87;78.08
35878;BME280;21982;49.804;24.072;2022-08-19T03:44:27;97098.38;;;21.03;78.05
35878;BME280;21982;49.804;24.072;2022-08-19T03:46:55;97098.44;;;21.08;78.02
35878;BME280;21982;49.804;24.072;2022-08-19T03:49:28;97092.25;;;21.13;78.13
35878;BME280;21982;49.804;24.072;2022-08-19T03:51:58;97088.75;;;21.13;77.79
35878;BME280;21982;49.804;24.072;2022-08-19T03:54:28;97094.78;;;21.30;78.07
35878;BME280;21982;49.804;24.072;2022-08-19T03:56:55;97093.25;;;21.49;77.85
35878;BME280;21982;49.804;24.072;2022-08-19T03:59:26;97089.31;;;21.67;77.40
35878;BME280;21982;49.804;24.072;2022-08-19T04:01:54;97095.28;;;21.84;76.74
35878;BME280;21982;49.804;24.072;2022-08-19T04:04:20;97071.31;;;21.83;76.32
35878;BME280;21982;49.804;24.072;2022-08-19T04:06:50;97097.03;;;22.11;75.98
35878;BME280;21982;49.804;24.072;2022-08-19T04:09:20;97060.81;;;21.96;75.67
35878;BME280;21982;49.804;24.072;2022-08-19T04:11:52;97071.41;;;22.13;75.41
35878;BME280;21982;49.804;24.072;2022-08-19T04:14:22;97100.31;;;22.38;75.31
35878;BME280;21982;49.804;24.072;2022-08-19T04:16:50;97037.69;;;22.05;75.08
35878;BME280;21982;49.804;24.072;2022-08-19T04:19:17;97103.81;;;22.59;74.85
35878;BME280;21982;49.804;24.072;2022-08-19T04:21:45;97084.13;;;22.48;74.49
35878;BME280;21982;49.804;24.072;2022-08-19T04:24:12;97105.16;;;22.66;74.45
35878;BME280;21982;49.804;24.072;2022-08-19T04:26:38;97102.47;;;22.71;74.16
35878;BME280;21982;49.804;24.072;2022-08-19T04:29:15;97099.81;;;22.82;73.64
35878;BME280;21982;49.804;24.072;2022-08-19T04:31:42;97100.31;;;22.89;73.53
35878;BME280;21982;49.804;24.072;2022-08-19T04:34:11;97099.50;;;22.98;73.38
35878;BME280;21982;49.804;24.072;2022-08-19T04:36:42;97097.06;;;23.07;73.16
35878;BME280;21982;49.804;24.072;2022-08-19T04:39:39;97097.88;;;23.13;72.52
35878;BME280;21982;49.804;24.072;2022-08-19T04:42:28;97062.25;;;23.00;72.67
35878;BME280;21982;49.804;24.072;2022-08-19T04:45:08;97068.63;;;23.30;72.25
35878;BME280;21982;49.804;24.072;2022-08-19T04:47:39;97081.78;;;23.62;71.26
35878;BME280;21982;49.804;24.072;2022-08-19T04:50:09;97097.00;;;24.07;70.25
35878;BME280;21982;49.804;24.072;2022-08-19T04:52:38;97006.00;;;23.82;69.41
35878;BME280;21982;49.804;24.072;2022-08-19T04:55:09;97090.78;;;24.85;68.11
35878;BME280;21982;49.804;24.072;2022-08-19T04:57:41;97106.59;;;25.30;66.53
35878;BME280;21982;49.804;24.072;2022-08-19T05:00:12;97090.38;;;25.78;65.28
35878;BME280;21982;49.804;24.072;2022-08-19T05:02:43;97100.91;;;26.22;63.87
35878;BME280;21982;49.804;24.072;2022-08-19T05:05:17;97104.06;;;26.67;62.76
35878;BME280;21982;49.804;24.072;2022-08-19T05:07:45;97103.09;;;27.09;61.23
35878;BME280;21982;49.804;24.072;2022-08-19T05:10:11;97108.13;;;27.62;60.23
35878;BME280;21982;49.804;24.072;2022-08-19T05:12:38;97107.97;;;28.08;58.47
35878;BME280;21982;49.804;24.072;2022-08-19T05:15:05;97105.03;;;28.54;57.67
35878;BME280;21982;49.804;24.072;2022-08-19T05:17:32;97102.34;;;28.99;56.16
35878;BME280;21982;49.804;24.072;2022-08-19T05:19:58;97045.66;;;29.18;55.17
35878;BME280;21982;49.804;24.072;2022-08-19T05:22:45;97099.97;;;30.25;53.60
35878;BME280;21982;49.804;24.072;2022-08-19T05:25:24;97086.94;;;30.91;52.13
35878;BME280;21982;49.804;24.072;2022-08-19T05:27:53;97105.28;;;31.54;50.44
35878;BME280;21982;49.804;24.072;2022-08-19T05:30:18;97107.66;;;32.03;49.21
35878;BME280;21982;49.804;24.072;2022-08-19T05:32:44;97085.97;;;32.39;47.35
35878;BME280;21982;49.804;24.072;2022-08-19T05:35:13;97091.03;;;32.70;46.58
35878;BME280;21982;49.804;24.072;2022-08-19T05:37:39;97110.91;;;33.21;45.84
35878;BME280;21982;49.804;24.072;2022-08-19T05:40:13;97094.16;;;33.71;44.57
35878;BME280;21982;49.804;24.072;2022-08-19T05:42:38;97087.88;;;34.19;43.39
35878;BME280;21982;49.804;24.072;2022-08-19T05:45:04;97100.88;;;34.47;42.94
35878;BME280;21982;49.804;24.072;2022-08-19T05:47:30;97097.38;;;34.22;42.98
35878;BME280;21982;49.804;24.072;2022-08-19T05:50:01;97086.66;;;33.92;42.86
35878;BME280;21982;49.804;24.072;2022-08-19T05:52:27;97127.59;;;33.97;43.73
35878;BME280;21982;49.804;24.072;2022-08-19T05:54:53;97087.88;;;34.07;43.08
35878;BME280;21982;49.804;24.072;2022-08-19T05:57:23;97074.28;;;34.51;42.59
35878;BME280;21982;49.804;24.072;2022-08-19T05:59:53;97124.00;;;35.42;41.64
35878;BME280;21982;49.804;24.072;2022-08-19T06:02:20;97118.00;;;35.83;40.55
35878;BME280;21982;49.804;24.072;2022-08-19T06:04:46;97127.19;;;36.38;39.54
35878;BME280;21982;49.804;24.072;2022-08-19T06:07:11;97116.81;;;36.51;39.02
35878;BME280;21982;49.804;24.072;2022-08-19T06:09:36;97112.69;;;36.80;38.80
35878;BME280;21982;49.804;24.072;2022-08-19T06:12:02;97122.97;;;37.41;37.14
35878;BME280;21982;49.804;24.072;2022-08-19T06:14:31;97134.31;;;38.04;36.62
35878;BME280;21982;49.804;24.072;2022-08-19T06:17:00;97111.88;;;38.36;35.39
35878;BME280;21982;49.804;24.072;2022-08-19T06:19:28;97105.25;;;38.70;35.09
35878;BME280;21982;49.804;24.072;2022-08-19T06:22:04;97115.31;;;39.15;34.91
35878;BME280;21982;49.804;24.072;2022-08-19T06:24:33;97112.50;;;39.49;33.74
35878;BME280;21982;49.804;24.072;2022-08-19T06:27:03;97107.47;;;39.65;33.81
35878;BME280;21982;49.804;24.072;2022-08-19T06:29:31;97122.91;;;40.10;33.31
35878;BME280;21982;49.804;24.072;2022-08-19T06:31:58;97130.13;;;40.26;32.18
35878;BME280;21982;49.804;24.072;2022-08-19T06:34:25;97102.09;;;39.86;31.86
35878;BME280;21982;49.804;24.072;2022-08-19T06:36:57;97129.38;;;39.77;32.00
35878;BME280;21982;49.804;24.072;2022-08-19T06:39:52;97102.25;;;40.04;32.57
35878;BME280;21982;49.804;24.072;2022-08-19T06:42:18;97076.59;;;40.18;31.02
35878;BME280;21982;49.804;24.072;2022-08-19T06:44:45;97117.97;;;40.41;30.96
35878;BME280;21982;49.804;24.072;2022-08-19T06:47:18;97106.47;;;39.87;31.72
35878;BME280;21982;49.804;24.072;2022-08-19T06:49:46;97100.06;;;39.76;31.67
35878;BME280;21982;49.804;24.072;2022-08-19T06:52:15;97049.94;;;39.48;31.57
35878;BME280;21982;49.804;24.072;2022-08-19T06:54:47;97079.41;;;39.70;31.72
35878;BME280;21982;49.804;24.072;2022-08-19T06:57:12;97114.78;;;39.84;31.50
35878;BME280;21982;49.804;24.072;2022-08-19T06:59:46;97088.94;;;39.32;31.49
35878;BME280;21982;49.804;24.072;2022-08-19T07:02:21;97122.22;;;39.76;32.01
35878;BME280;21982;49.804;24.072;2022-08-19T07:04:51;97109.22;;;40.35;31.06
35878;BME280;21982;49.804;24.072;2022-08-19T07:07:16;97054.22;;;39.90;30.81
35878;BME280;21982;49.804;24.072;2022-08-19T07:09:43;97127.19;;;40.63;30.36
35878;BME280;21982;49.804;24.072;2022-08-19T07:12:13;97111.94;;;41.08;30.15
35878;BME280;21982;49.804;24.072;2022-08-19T07:14:45;97093.38;;;41.44;29.40
35878;BME280;21982;49.804;24.072;2022-08-19T07:17:12;97109.66;;;41.53;29.41
35878;BME280;21982;49.804;24.072;2022-08-19T07:19:38;97112.88;;;41.79;28.57
35878;BME280;21982;49.804;24.072;2022-08-19T07:22:06;97098.19;;;41.79;27.03
35878;BME280;21982;49.804;24.072;2022-08-19T07:24:33;97124.00;;;42.19;27.46
35878;BME280;21982;49.804;24.072;2022-08-19T07:27:02;97110.09;;;41.72;26.46
35878;BME280;21982;49.804;24.072;2022-08-19T07:29:29;97110.69;;;40.95;27.48
35878;BME280;21982;49.804;24.072;2022-08-19T07:31:56;97108.38;;;41.11;26.98
35878;BME280;21982;49.804;24.072;2022-08-19T07:34:28;97108.03;;;41.20;27.14
35878;BME280;21982;49.804;24.072;2022-08-19T07:37:04;97087.66;;;40.80;27.46
35878;BME280;21982;49.804;24.072;2022-08-19T07:39:33;97126.28;;;41.24;28.42
35878;BME280;21982;49.804;24.072;2022-08-19T07:42:00;97110.50;;;42.03;27.91
35878;BME280;21982;49.804;24.072;2022-08-19T07:44:27;97096.91;;;42.47;26.59
35878;BME280;21982;49.804;24.072;2022-08-19T07:46:55;97118.28;;;42.79;25.98
35878;BME280;21982;49.804;24.072;2022-08-19T07:49:22;97113.19;;;42.60;26.06
35878;BME280;21982;49.804;24.072;2022-08-19T07:51:50;97120.78;;;42.31;26.79
35878;BME280;21982;49.804;24.072;2022-08-19T07:54:19;97078.22;;;42.37;25.33
35878;BME280;21982;49.804;24.072;2022-08-19T07:56:45;97109.53;;;42.73;25.67
35878;BME280;21982;49.804;24.072;2022-08-19T07:59:11;97074.13;;;42.70;26.10
35878;BME280;21982;49.804;24.072;2022-08-19T08:01:38;97115.09;;;42.84;25.59
35878;BME280;21982;49.804;24.072;2022-08-19T08:04:06;97101.56;;;42.86;26.08
35878;BME280;21982;49.804;24.072;2022-08-19T08:06:50;97092.94;;;42.31;26.05
35878;BME280;21982;49.804;24.072;2022-08-19T08:09:37;97103.75;;;41.82;26.42
35878;BME280;21982;49.804;24.072;2022-08-19T08:12:27;97106.53;;;42.04;26.54
35878;BME280;21982;49.804;24.072;2022-08-19T08:14:56;97094.56;;;42.25;25.30
35878;BME280;21982;49.804;24.072;2022-08-19T08:17:25;97108.91;;;42.05;25.87
35878;BME280;21982;49.804;24.072;2022-08-19T08:19:52;97098.16;;;41.54;26.32
35878;BME280;21982;49.804;24.072;2022-08-19T08:22:19;97106.44;;;41.22;26.81
35878;BME280;21982;49.804;24.072;2022-08-19T08:25:11;97101.56;;;40.87;27.68
35878;BME280;21982;49.804;24.072;2022-08-19T08:27:42;97108.69;;;40.81;28.05
35878;BME280;21982;49.804;24.072;2022-08-19T08:30:13;97114.53;;;40.69;27.56
35878;BME280;21982;49.804;24.072;2022-08-19T08:32:41;97112.78;;;40.36;27.98
35878;BME280;21982;49.804;24.072;2022-08-19T08:35:11;97107.00;;;40.66;27.82
35878;BME280;21982;49.804;24.072;2022-08-19T08:37:37;97109.81;;;40.73;27.73
35878;BME280;21982;49.804;24.072;2022-08-19T08:43:20;97100.94;;;41.50;27.17
35878;BME280;21982;49.804;24.072;2022-08-19T08:46:05;97121.59;;;41.60;26.52
35878;BME280;21982;49.804;24.072;2022-08-19T08:48:49;97113.66;;;41.94;25.51
35878;BME280;21982;49.804;24.072;2022-08-19T08:54:44;97088.22;;;42.13;25.44
35878;BME280;21982;49.804;24.072;2022-08-19T08:57:23;97112.72;;;42.72;24.62
35878;BME280;21982;49.804;24.072;2022-08-19T08:59:54;97108.91;;;42.02;24.81
35878;BME280;21982;49.804;24.072;2022-08-19T09:02:22;97110.06;;;41.47;25.40
35878;BME280;21982;49.804;24.072;2022-08-19T09:04:54;97106.13;;;41.84;25.01
35878;BME280;21982;49.804;24.072;2022-08-19T09:15:33;97126.13;;;40.78;25.37
35878;BME280;21982;49.804;24.072;2022-08-19T09:18:02;97142.25;;;40.55;24.94
35878;BME280;21982;49.804;24.072;2022-08-19T09:20:29;97075.06;;;40.31;24.90
35878;BME280;21982;49.804;24.072;2022-08-19T09:22:56;97115.34;;;40.69;25.00
35878;BME280;21982;49.804;24.072;2022-08-19T09:25:22;97101.81;;;40.61;24.79
35878;BME280;21982;49.804;24.072;2022-08-19T09:27:49;97118.75;;;41.21;24.99
35878;BME280;21982;49.804;24.072;2022-08-19T09:30:18;97107.69;;;41.49;24.75
35878;BME280;21982;49.804;24.072;2022-08-19T09:32:47;97110.88;;;41.83;24.21
35878;BME280;21982;49.804;24.072;2022-08-19T09:35:16;97118.03;;;41.74;23.61
35878;BME280;21982;49.804;24.072;2022-08-19T09:37:45;97111.25;;;41.54;24.26
35878;BME280;21982;49.804;24.072;2022-08-19T09:40:11;97094.59;;;41.61;22.77
35878;BME280;21982;49.804;24.072;2022-08-19T09:42:40;97130.34;;;41.98;22.88
35878;BME280;21982;49.804;24.072;2022-08-19T09:45:09;97115.66;;;42.19;22.34
35878;BME280;21982;49.804;24.072;2022-08-19T09:47:35;97118.03;;;41.92;23.41
35878;BME280;21982;49.804;24.072;2022-08-19T09:50:04;97113.25;;;41.96;23.58
35878;BME280;21982;49.804;24.072;2022-08-19T09:52:30;97094.59;;;41.86;23.85
35878;BME280;21982;49.804;24.072;2022-08-19T09:54:56;97099.72;;;41.48;23.95
35878;BME280;21982;49.804;24.072;2022-08-19T09:57:21;97036.50;;;40.81;24.71
35878;BME280;21982;49.804;24.072;2022-08-19T09:59:46;97119.94;;;41.31;23.96
35878;BME280;21982;49.804;24.072;2022-08-19T10:02:15;97095.66;;;41.06;24.23
35878;BME280;21982;49.804;24.072;2022-08-19T10:04:41;97125.06;;;41.14;24.35
35878;BME280;21982;49.804;24.072;2022-08-19T10:07:24;97088.53;;;41.12;24.80
35878;BME280;21982;49.804;24.072;2022-08-19T10:09:50;97124.66;;;41.12;24.15
35878;BME280;21982;49.804;24.072;2022-08-19T10:12:15;97117.41;;;40.90;24.18
35878;BME280;21982;49.804;24.072;2022-08-19T10:14:41;97111.91;;;41.01;23.93
35878;BME280;21982;49.804;24.072;2022-08-19T10:17:07;97079.00;;;41.13;23.74
35878;BME280;21982;49.804;24.072;2022-08-19T10:19:32;97116.31;;;41.09;24.13
35878;BME280;21982;49.804;24.072;2022-08-19T10:22:05;97087.03;;;40.35;23.77
35878;BME280;21982;49.804;24.072;2022-08-19T10:24:32;97135.22;;;40.13;23.60
35878;BME280;21982;49.804;24.072;2022-08-19T10:26:59;97129.97;;;40.63;23.83
35878;BME280;21982;49.804;24.072;2022-08-19T10:29:26;97126.72;;;41.44;23.56
35878;BME280;21982;49.804;24.072;2022-08-19T10:31:53;97129.16;;;42.13;22.60
35878;BME280;21982;49.804;24.072;2022-08-19T10:34:18;97129.53;;;41.55;23.29
35878;BME280;21982;49.804;24.072;2022-08-19T10:36:44;97096.06;;;41.05;24.18
35878;BME280;21982;49.804;24.072;2022-08-19T10:39:10;97096.06;;;41.08;24.60
35878;BME280;21982;49.804;24.072;2022-08-19T10:41:39;97117.97;;;41.38;24.91
35878;BME280;21982;49.804;24.072;2022-08-19T10:44:07;97117.25;;;41.88;24.04
35878;BME280;21982;49.804;24.072;2022-08-19T10:46:37;97063.56;;;41.27;23.81
35878;BME280;21982;49.804;24.072;2022-08-19T10:49:04;97108.53;;;40.53;24.44
35878;BME280;21982;49.804;24.072;2022-08-19T10:51:31;97091.75;;;39.76;25.48
35878;BME280;21982;49.804;24.072;2022-08-19T10:54:19;97102.47;;;39.81;25.44
35878;BME280;21982;49.804;24.072;2022-08-19T10:56:51;96935.59;;;39.07;25.87
35878;BME280;21982;49.804;24.072;2022-08-19T10:59:26;97026.72;;;40.29;25.03
35878;BME280;21982;49.804;24.072;2022-08-19T11:01:53;97119.16;;;41.34;24.29
35878;BME280;21982;49.804;24.072;2022-08-19T11:04:19;96988.03;;;40.68;24.11
35878;BME280;21982;49.804;24.072;2022-08-19T11:06:45;97059.53;;;40.99;23.83
35878;BME280;21982;49.804;24.072;2022-08-19T11:09:19;97104.00;;;41.10;24.14
35878;BME280;21982;49.804;24.072;2022-08-19T11:11:45;97080.91;;;40.81;24.33
35878;BME280;21982;49.804;24.072;2022-08-19T11:14:15;97059.16;;;40.21;25.32
35878;BME280;21982;49.804;24.072;2022-08-19T11:16:41;97025.63;;;39.85;24.48
35878;BME280;21982;49.804;24.072;2022-08-19T11:19:08;97067.63;;;39.80;24.85
35878;BME280;21982;49.804;24.072;2022-08-19T11:21:41;97005.56;;;39.44;25.58
35878;BME280;21982;49.804;24.072;2022-08-19T11:24:17;97104.59;;;40.61;24.85
35878;BME280;21982;49.804;24.072;2022-08-19T11:26:47;96874.84;;;39.32;24.71
35878;BME280;21982;49.804;24.072;2022-08-19T11:29:19;96798.19;;;38.40;25.25
35878;BME280;21982;49.804;24.072;2022-08-19T11:31:47;96765.25;;;37.87;25.51
35878;BME280;21982;49.804;24.072;2022-08-19T11:34:20;96754.44;;;37.72;24.90
35878;BME280;21982;49.804;24.072;2022-08-19T11:36:47;96879.31;;;38.55;25.11
35878;BME280;21982;49.804;24.072;2022-08-19T11:39:16;97093.63;;;40.96;24.35
35878;BME280;21982;49.804;24.072;2022-08-19T11:41:42;97044.00;;;40.77;24.59
35878;BME280;21982;49.804;24.072;2022-08-19T11:44:08;97092.84;;;40.99;23.58
35878;BME280;21982;49.804;24.072;2022-08-19T11:46:35;97095.81;;;40.48;23.68
35878;BME280;21982;49.804;24.072;2022-08-19T11:49:05;97010.72;;;40.01;24.09
35878;BME280;21982;49.804;24.072;2022-08-19T11:51:35;96974.09;;;39.74;23.44
35878;BME280;21982;49.804;24.072;2022-08-19T11:54:04;97078.63;;;40.28;23.97
35878;BME280;21982;49.804;24.072;2022-08-19T11:56:31;97030.94;;;40.01;23.87
35878;BME280;21982;49.804;24.072;2022-08-19T11:58:57;96998.06;;;40.03;24.11
35878;BME280;21982;49.804;24.072;2022-08-19T12:01:25;97070.59;;;40.78;24.05
35878;BME280;21982;49.804;24.072;2022-08-19T12:03:52;97065.47;;;40.87;23.46
35878;BME280;21982;49.804;24.072;2022-08-19T12:06:30;97076.94;;;40.78;23.73
35878;BME280;21982;49.804;24.072;2022-08-19T12:08:59;97026.59;;;40.04;24.29
35878;BME280;21982;49.804;24.072;2022-08-19T12:11:29;97008.81;;;40.15;24.39
35878;BME280;21982;49.804;24.072;2022-08-19T12:13:54;97053.94;;;40.81;23.67
35878;BME280;21982;49.804;24.072;2022-08-19T12:16:27;97075.91;;;41.40;23.14
35878;BME280;21982;49.804;24.072;2022-08-19T12:18:54;97081.03;;;41.34;22.04
35878;BME280;21982;49.804;24.072;2022-08-19T12:21:25;97088.47;;;40.95;22.56
35878;BME280;21982;49.804;24.072;2022-08-19T12:23:54;97095.28;;;39.73;24.91
35878;BME280;21982;49.804;24.072;2022-08-19T12:26:20;97044.91;;;39.64;23.87
35878;BME280;21982;49.804;24.072;2022-08-19T12:28:46;97088.22;;;40.38;24.07
35878;BME280;21982;49.804;24.072;2022-08-19T12:31:13;96936.22;;;39.99;23.52
35878;BME280;21982;49.804;24.072;2022-08-19T12:33:41;97088.09;;;41.03;22.90
35878;BME280;21982;49.804;24.072;2022-08-19T12:36:10;97075.19;;;40.45;23.30
35878;BME280;21982;49.804;24.072;2022-08-19T12:38:36;97059.91;;;39.60;23.83
35878;BME280;21982;49.804;24.072;2022-08-19T12:41:03;97071.50;;;39.28;23.77
35878;BME280;21982;49.804;24.072;2022-08-19T12:43:31;96988.38;;;38.87;24.36
35878;BME280;21982;49.804;24.072;2022-08-19T12:45:56;96978.88;;;38.85;23.89
35878;BME280;21982;49.804;24.072;2022-08-19T12:48:22;96938.44;;;38.06;24.02
35878;BME280;21982;49.804;24.072;2022-08-19T12:50:48;97071.03;;;38.55;24.31
35878;BME280;21982;49.804;24.072;2022-08-19T12:53:14;97044.94;;;38.23;24.69
35878;BME280;21982;49.804;24.072;2022-08-19T12:55:40;97066.47;;;38.67;24.88
35878;BME280;21982;49.804;24.072;2022-08-19T12:58:05;97075.00;;;38.88;24.19
35878;BME280;21982;49.804;24.072;2022-08-19T13:00:31;96967.78;;;38.14;25.24
35878;BME280;21982;49.804;24.072;2022-08-19T13:02:59;97060.41;;;38.58;26.04
35878;BME280;21982;49.804;24.072;2022-08-19T13:05:28;97041.16;;;38.08;26.22
35878;BME280;21982;49.804;24.072;2022-08-19T13:07:55;97052.06;;;37.48;27.21
35878;BME280;21982;49.804;24.072;2022-08-19T13:10:23;97057.19;;;37.04;27.82
35878;BME280;21982;49.804;24.072;2022-08-19T13:12:51;97021.34;;;36.85;28.15
35878;BME280;21982;49.804;24.072;2022-08-19T13:15:18;97048.22;;;36.88;27.84